• Join FlightAware (Why Join?)
  • Login
  • US Flag 
07:45PM EDT


 

Airport Tracker/Info


-or-


 

Live Flight TrackerFlight Track Log ✈ EJA749 ✈ 13-Sep-2013 ✈ KTEB - KSAV

Flight Track Log - Related Links

Times and Time Zones

All times are in EDT time to prevent confusion due to time zone crossing. See the EJA749 flight status page for this flight to view local times or setup timezone preferences in your user account.

Time Position Orientation Groundspeed Altitude Reporting Facility
EDT Latitude Longitude Course Direction KTS MPH feet Rate Location/Type
03:01PM 40.8808 -74.0453 290° West 180 207 1,600  Level New York Center
03:02PM 40.8958 -74.1008 290° West 227 261 5,100 2,220 Climbing New York Center
03:03PM 40.8281 -74.1389 203° Southwest 290 334 6,100 660 Climbing New York Center
03:03PM 40.8000 -74.1500 197° South 284 327 6,100 1,620 Level New York TRACON
03:04PM 40.7333 -74.1833 201° Southwest 280 322 8,400 3,420 Climbing New York TRACON
03:05PM 40.6500 -74.2167 197° South 307 353 12,600 3,240 Climbing New York TRACON
03:06PM 40.5333 -74.2000 174° South 385 443 15,300 2,160 Climbing New York TRACON
03:07PM 40.4333 -74.1833 173° South 400 460 17,000 1,080 Climbing New York TRACON
03:08PM 40.3625 -74.1731 174° South 399 459 17,000 60 Level New York Center
03:09PM 40.2792 -74.1744 181° South 389 448 17,100  Climbing New York Center
03:10PM 40.1678 -74.2042 192° South 376 433 17,000 360 Descending New York Center
03:11PM 40.0775 -74.2297 192° South 371 427 17,900 2,160 Climbing New York Center
03:13PM 39.9214 -74.3281 206° Southwest 340 391 23,300 2,820 Climbing Washington Center
03:14PM 39.8244 -74.4244 217° Southwest 358 412 26,200 2,640 Climbing Washington Center
03:15PM 39.7544 -74.5147 225° Southwest 364 419 28,700 2,520 Climbing Washington Center
03:16PM 39.6844 -74.6072 225° Southwest 364 419 31,300 2,520 Climbing Washington Center
03:17PM 39.6100 -74.6811 217° Southwest 357 411 33,700 1,620 Climbing Washington Center
03:18PM 39.5272 -74.7386 208° Southwest 347 399 34,600 1,020 Climbing Washington Center
03:19PM 39.4378 -74.7961 206° Southwest 347 399 35,800 1,320 Climbing Washington Center
03:20PM 39.3486 -74.8561 207° Southwest 358 412 37,300 1,020 Climbing Washington Center
03:21PM 39.2572 -74.9161 207° Southwest 363 418 37,900 300 Climbing Washington Center
03:22PM 39.1619 -74.9814 208° Southwest 377 434 38,000  Climbing Washington Center
03:23PM 39.0619 -75.0436 206° Southwest 391 450 38,000  Level Washington Center
03:24PM 38.9622 -75.1083 207° Southwest 396 456 38,000  Level Washington Center
03:25PM 38.8625 -75.1758 208° Southwest 401 461 38,000  Level Washington Center
03:26PM 38.7628 -75.2428 208° Southwest 406 467 38,000  Level Washington Center
03:27PM 38.6628 -75.3097 208° Southwest 406 467 38,000 -60 Level Washington Center
03:28PM 38.5628 -75.3714 206° Southwest 406 467 37,900 -60 Descending Washington Center
03:29PM 38.4628 -75.4353 207° Southwest 406 467 37,900  Level Washington Center
03:30PM 38.3669 -75.4989 207° Southwest 401 461 37,900  Level Washington Center
03:31PM 38.2733 -75.5733 212° Southwest 401 461 38,000  Climbing Washington Center
03:32PM 38.1856 -75.6550 216° Southwest 401 461 38,000  Level Washington Center
03:33PM 38.1000 -75.7394 218° Southwest 401 461 38,000 -60 Level Washington Center
03:34PM 38.0333 -75.8106 220° Southwest 401 461 37,900  Descending Washington Center
03:35PM 37.9225 -75.9050 214° Southwest 406 467 38,000  Climbing Washington Center
03:36PM 37.8325 -75.9889 216° Southwest 406 467 38,000 -60 Level Washington Center
03:37PM 37.7467 -76.0750 218° Southwest 406 467 37,900 -60 Descending Washington Center
03:38PM 37.6756 -76.1428 217° Southwest 406 467 37,900  Level Washington Center
03:39PM 37.5644 -76.2389 214° Southwest 406 467 38,000  Climbing Washington Center
03:40PM 37.4744 -76.3219 216° Southwest 406 467 38,000  Level Washington Center
03:41PM 37.3819 -76.4047 215° Southwest 406 467 38,000  Level Washington Center
03:42PM 37.2917 -76.4872 216° Southwest 406 467 38,000  Level Washington Center
03:43PM 37.2014 -76.5697 216° Southwest 406 467 38,000  Level Washington Center
03:44PM 37.1089 -76.6544 216° Southwest 406 467 38,000  Level Washington Center
03:45PM 37.0164 -76.7364 215° Southwest 411 473 38,000  Level Washington Center
03:46PM 36.9258 -76.8208 217° Southwest 411 473 38,000  Level Washington Center
03:47PM 36.8311 -76.9050 215° Southwest 411 473 38,000  Level Washington Center
03:48PM 36.7383 -76.9889 216° Southwest 416 479 38,000  Level Washington Center
03:49PM 36.6475 -77.0753 217° Southwest 416 479 38,000  Level Washington Center
03:50PM 36.5589 -77.1642 219° Southwest 416 479 38,000  Level Washington Center
03:51PM 36.4681 -77.2528 218° Southwest 416 479 38,000  Level Washington Center
03:52PM 36.3750 -77.3411 217° Southwest 422 486 38,000  Level Washington Center
03:53PM 36.2858 -77.4317 219° Southwest 422 486 38,000  Level Washington Center
03:54PM 36.1989 -77.5172 218° Southwest 422 486 38,000  Level Washington Center
03:55PM 36.1078 -77.6075 219° Southwest 422 486 38,000  Level Washington Center
03:56PM 36.0144 -77.6950 217° Southwest 428 493 38,000  Level Washington Center
03:57PM 35.9211 -77.7850 218° Southwest 428 493 38,000  Level Washington Center
03:58PM 35.8278 -77.8719 217° Southwest 428 493 38,000  Level Washington Center
03:59PM 35.7342 -77.9614 218° Southwest 428 493 38,000  Level Washington Center
04:00PM 35.6406 -78.0508 218° Southwest 428 493 38,000  Level Washington Center
04:01PM 35.5447 -78.1372 216° Southwest 428 493 38,000  Level Washington Center
04:02PM 35.4489 -78.2283 218° Southwest 428 493 38,000  Level Washington Center
04:03PM 35.3531 -78.3169 217° Southwest 428 493 38,000  Level Washington Center
04:04PM 35.2592 -78.4078 218° Southwest 428 493 38,000  Level Washington Center
04:05PM 35.1631 -78.4961 217° Southwest 428 493 38,000  Level Washington Center
04:06PM 35.0692 -78.5864 218° Southwest 428 493 38,000  Level Washington Center
04:07PM 34.9750 -78.6767 218° Southwest 428 493 38,000  Level Washington Center
04:08PM 34.8894 -78.7544 217° Southwest 428 493 38,000  Level Washington Center
04:09PM 34.7953 -78.8419 217° Southwest 428 493 38,000  Level Washington Center
04:10PM 34.6989 -78.9317 217° Southwest 428 493 38,000 -60 Level Washington Center
04:12PM 34.4856 -79.1319 218° Southwest 437 503 37,900 -60 Descending Jacksonville Center
04:13PM 34.3922 -79.2189 218° Southwest 442 509 37,900  Level Jacksonville Center
04:14PM 34.2944 -79.3086 217° Southwest 442 509 37,900  Level Jacksonville Center
04:15PM 34.1989 -79.3928 216° Southwest 437 503 37,900  Level Jacksonville Center
04:16PM 34.0992 -79.4819 217° Southwest 425 489 37,900  Level Jacksonville Center
04:17PM 33.9992 -79.5686 216° Southwest 431 496 37,900  Level Jacksonville Center
04:18PM 33.9056 -79.6572 218° Southwest 431 496 37,900  Level Jacksonville Center
04:19PM 33.8203 -79.7528 223° Southwest 431 496 37,900 -1,140 Level Jacksonville Center
04:20PM 33.7436 -79.8581 229° Southwest 425 489 35,700 -2,940 Descending Jacksonville Center
04:21PM 33.6669 -79.9653 229° Southwest 419 482 32,100 -2,700 Descending Jacksonville Center
04:22PM 33.5983 -80.0700 232° Southwest 414 476 30,300 -1,080 Descending Jacksonville Center
04:23PM 33.5106 -80.1575 220° Southwest 409 471 30,000 -180 Descending Jacksonville Center
04:24PM 33.4206 -80.2497 221° Southwest 416 479 30,000 -180 Level Jacksonville Center
04:25PM 33.3603 -80.3683 239° Southwest 421 484 29,700 -1,440 Descending Jacksonville Center
04:26PM 33.3189 -80.4864 247° West 426 490 27,200 -2,700 Descending Jacksonville Center
04:27PM 33.2631 -80.6219 244° Southwest 441 507 24,300 -2,160 Descending Jacksonville Center
04:28PM 33.2028 -80.7650 243° Southwest 465 535 22,900 -900 Descending Jacksonville Center
04:29PM 33.1467 -80.9078 245° Southwest 471 542 22,600 -1,200 Descending Jacksonville Center
04:30PM 33.1006 -81.0278 245° Southwest 448 516 20,500 -1,800 Descending Jacksonville Center
04:31PM 33.0606 -81.1428 247° West 405 466 19,000 -1,380 Descending Jacksonville Center
04:32PM 33.0242 -81.2450 247° West 364 419 17,800 -1,200 Descending Jacksonville Center
04:33PM 32.9919 -81.3397 248° West 331 381 16,600 -1,560 Descending Jacksonville Center
04:34PM 32.9661 -81.4342 252° West 320 368 14,700 -2,340 Descending Jacksonville Center
04:35PM 32.9358 -81.5264 249° West 306 352 12,000 -1,440 Descending Jacksonville Center
04:36PM 32.9033 -81.6108 245° Southwest 299 344 11,900 -60 Descending Jacksonville Center
04:37PM 32.8639 -81.6511 221° Southwest 234 269 11,900  Level Jacksonville Center
04:38PM 32.8072 -81.6122 150° Southeast 167 192 12,000  Climbing Jacksonville Center
04:39PM 32.7653 -81.5833 150° Southeast 167 192 11,900  Descending Jacksonville Center
04:40PM 32.7189 -81.5517 150° Southeast 180 207 12,000  Climbing Jacksonville Center
04:41PM 32.6728 -81.5228 152° Southeast 185 213 12,000  Level Jacksonville Center
04:42PM 32.6242 -81.4842 146° Southeast 197 227 12,100 -1,080 Climbing Jacksonville Center
04:43PM 32.5506 -81.4336 150° Southeast 261 300 9,900 -2,160 Descending Jacksonville Center
04:44PM 32.4956 -81.3681 135° Southeast 290 334 7,800 -2,100 Descending Jacksonville Center
04:45PM 32.4467 -81.3022 131° Southeast 271 312 5,700 -1,920 Descending Jacksonville Center
04:46PM 32.4042 -81.2414 130° Southeast 262 302 4,000 -900 Descending Jacksonville Center
04:47PM 32.3492 -81.1833 138° Southeast 262 302 3,900 -1,020 Descending Jacksonville Center
04:48PM 32.2836 -81.1233 142° Southeast 267 307 2,000 -1,920 Descending Jacksonville Center
04:50PM 32.1346 -81.1828 199° South  Level FlightAware Approximate
04:57PM 32.1167 -81.2000 220° Southwest  Level FlightAware Approximate
04:58PM 32.1276 -81.2021 220° Southwest  Level Estimated
04:59PM 32.1276 -81.2021 220° Southwest  Level Estimated
05:00PM 32.1276 -81.2021 220° Southwest  Level Estimated
05:01PM 32.1276 -81.2021 220° Southwest  Level Estimated
05:02PM 32.1276 -81.2021 220° Southwest  Level Estimated